Time;durP1;ratioP1;P1;durP2;ratioP2;P2;SDS_P1;SDS_P2;PMS_P1;PMS_P2;Temp;Humidity;BMP_temperature;BMP_pressure;BME280_temperature;BME280_humidity;BME280_pressure;Samples;Min_cycle;Max_cycle;Signal;HPM_P1;HPM_P2
2023/03/28 00:00:47;;;;;;;6.20;4.00;;;;;;;1.10;90.66;99384.50;5051860;28;20024;-78
2023/03/28 00:03:13;;;;;;;8.13;4.45;;;;;;;1.10;90.44;99381.94;5051803;28;20060;-77
2023/03/28 00:05:40;;;;;;;4.72;3.50;;;;;;;0.92;90.69;99347.09;5051797;28;20393;-77
2023/03/28 00:08:06;;;;;;;5.13;3.72;;;;;;;0.95;91.06;99341.94;5051443;28;20036;-77
2023/03/28 00:10:31;;;;;;;9.75;3.97;;;;;;;1.12;90.18;99377.63;5051758;28;20025;-77
2023/03/28 00:12:56;;;;;;;5.00;3.58;;;;;;;1.06;90.59;99370.03;5051506;28;20032;-78
2023/03/28 00:15:22;;;;;;;6.38;3.17;;;;;;;0.92;90.67;99360.75;5051696;28;20036;-78
2023/03/28 00:17:48;;;;;;;6.25;3.13;;;;;;;0.98;90.76;99365.00;5051866;28;20032;-77
2023/03/28 00:20:13;;;;;;;5.43;3.58;;;;;;;0.64;90.87;99303.88;5051593;28;20040;-77
2023/03/28 00:22:39;;;;;;;5.70;3.28;;;;;;;0.98;91.05;99367.56;5051513;28;20029;-78
2023/03/28 00:25:05;;;;;;;6.63;3.17;;;;;;;1.15;90.74;99388.72;5051368;28;20033;-77
2023/03/28 00:27:32;;;;;;;4.72;3.10;;;;;;;0.98;91.15;99341.91;5051561;28;20084;-77
2023/03/28 00:29:58;;;;;;;5.50;3.72;;;;;;;1.18;91.05;99383.56;5051576;28;20051;-77
2023/03/28 00:32:23;;;;;;;5.65;3.40;;;;;;;0.88;90.74;99323.22;5051798;28;20029;-77
2023/03/28 00:34:48;;;;;;;7.20;3.00;;;;;;;1.10;90.89;99369.13;5051675;28;20027;-77
2023/03/28 00:37:16;;;;;;;4.65;2.85;;;;;;;1.00;90.10;99348.69;5051249;28;20039;-77
2023/03/28 00:39:48;;;;;;;6.20;3.20;;;;;;;0.99;90.77;99349.56;5051409;28;20021;-78
2023/03/28 00:42:15;;;;;;;5.72;3.28;;;;;;;1.00;90.38;99352.97;5051386;28;20029;-78
2023/03/28 00:44:52;;;;;;;9.27;3.33;;;;;;;1.09;90.78;99378.50;5051627;28;20028;-77
2023/03/28 00:47:26;;;;;;;7.75;3.55;;;;;;;1.11;90.70;99373.38;5051316;28;20021;-78
2023/03/28 00:50:09;;;;;;;6.15;3.53;;;;;;;0.77;91.03;99311.41;5051430;28;20021;-78
2023/03/28 00:52:41;;;;;;;5.57;3.20;;;;;;;1.01;90.65;99372.63;5051584;28;20033;-78
2023/03/28 00:55:13;;;;;;;7.45;4.03;;;;;;;0.91;91.67;99346.25;5051240;28;20100;-77
2023/03/28 00:57:40;;;;;;;7.03;3.90;;;;;;;0.97;91.01;99347.91;5051397;28;20119;-78
2023/03/28 01:00:11;;;;;;;5.47;3.47;;;;;;;1.19;91.26;99357.03;5051212;28;20059;-77
2023/03/28 01:02:38;;;;;;;6.55;4.50;;;;;;;1.17;91.43;99335.66;5051223;28;20107;-77
2023/03/28 01:05:04;;;;;;;9.40;4.57;;;;;;;1.47;90.44;99359.19;5051227;28;20028;-77
2023/03/28 01:07:36;;;;;;;6.30;3.92;;;;;;;1.42;90.89;99350.72;5051277;28;20435;-77
2023/03/28 01:10:04;;;;;;;7.28;3.88;;;;;;;1.44;90.46;99339.56;5051056;28;20166;-77
2023/03/28 01:12:31;;;;;;;6.03;3.95;;;;;;;1.39;90.06;99323.41;5051253;28;20428;-78
2023/03/28 01:14:57;;;;;;;5.30;3.67;;;;;;;1.44;89.82;99315.63;5050960;28;20361;-77
2023/03/28 01:17:24;;;;;;;7.82;3.78;;;;;;;1.57;89.86;99339.38;5051073;28;20044;-78
2023/03/28 01:20:01;;;;;;;6.95;4.07;;;;;;;1.42;90.18;99315.63;5051358;28;20029;-77
2023/03/28 01:22:35;;;;;;;8.68;3.88;;;;;;;1.63;89.83;99342.69;5051460;28;20522;-77
2023/03/28 01:25:41;;;;;;;4.72;3.72;;;;;;;1.40;89.83;99294.28;5050837;28;20031;-78
2023/03/28 01:28:29;;;;;;;7.18;3.75;;;;;;;1.65;90.02;99322.16;5050810;28;20423;-77
2023/03/28 01:31:35;;;;;;;7.43;4.57;;;;;;;1.64;89.91;99328.97;5051163;28;20377;-77
2023/03/28 01:34:19;;;;;;;9.82;3.55;;;;;;;1.68;90.00;99346.03;5051772;28;20123;-77
2023/03/28 01:37:06;;;;;;;6.05;3.67;;;;;;;1.55;90.09;99334.25;5054804;28;20021;-77
2023/03/28 01:39:56;;;;;;;6.00;3.67;;;;;;;1.64;90.24;99336.69;5054764;28;20583;-77
2023/03/28 01:42:44;;;;;;;7.22;3.63;;;;;;;1.66;90.20;99334.09;5054326;28;20064;-78
2023/03/28 01:45:13;;;;;;;5.72;3.97;;;;;;;1.67;89.83;99328.94;5051914;28;20071;-78
2023/03/28 01:47:46;;;;;;;10.00;3.90;;;;;;;1.69;90.05;99331.50;5051955;28;20123;-77
2023/03/28 01:50:31;;;;;;;7.80;3.25;;;;;;;1.39;89.41;99289.16;5051707;28;20037;-77
2023/03/28 01:53:06;;;;;;;5.50;3.40;;;;;;;1.63;89.85;99331.56;5051931;28;20029;-77
2023/03/28 01:55:39;;;;;;;7.95;3.65;;;;;;;1.57;89.79;99327.41;5051870;28;20044;-78
2023/03/28 01:58:20;;;;;;;7.03;3.83;;;;;;;1.54;89.92;99330.00;5051612;28;20033;-78
2023/03/28 02:00:53;;;;;;;10.45;4.55;;;;;;;1.44;90.42;99313.06;5051778;28;20037;-77
2023/03/28 02:03:32;;;;;;;6.55;3.47;;;;;;;1.54;90.16;99326.59;5051404;28;20408;-77
2023/03/28 02:05:59;;;;;;;4.03;3.63;;;;;;;1.42;90.11;99301.94;5051676;28;20040;-78
2023/03/28 02:08:29;;;;;;;8.07;4.55;;;;;;;1.56;89.78;99323.16;5051587;28;20564;-77
2023/03/28 02:10:57;;;;;;;6.65;4.20;;;;;;;1.46;90.08;99311.31;5051597;28;20100;-77
2023/03/28 02:13:30;;;;;;;7.95;4.35;;;;;;;1.47;90.21;99305.28;5051211;28;20127;-77
2023/03/28 02:15:58;;;;;;;6.95;3.72;;;;;;;1.47;90.08;99298.44;5051461;28;20114;-77
2023/03/28 02:18:35;;;;;;;5.05;3.97;;;;;;;1.52;90.39;99306.09;5051169;28;20037;-78
2023/03/28 02:21:06;;;;;;;7.80;3.92;;;;;;;1.72;89.87;99336.56;5051224;28;20060;-77
2023/03/28 02:23:39;;;;;;;8.13;4.47;;;;;;;1.71;89.42;99311.78;5054024;28;20369;-77
2023/03/28 02:26:05;;;;;;;6.78;4.20;;;;;;;1.78;89.71;99333.06;5053037;28;20131;-78
2023/03/28 02:28:32;;;;;;;8.95;4.78;;;;;;;1.80;89.76;99331.31;5053615;28;20469;-77
2023/03/28 02:31:00;;;;;;;6.40;4.55;;;;;;;1.80;89.64;99327.03;5053616;28;20029;-78
2023/03/28 02:33:40;;;;;;;6.55;5.20;;;;;;;1.52;90.41;99306.09;5053691;28;20472;-78
2023/03/28 02:36:28;;;;;;;7.82;4.80;;;;;;;1.75;90.36;99331.38;5053395;28;20056;-77
2023/03/28 02:38:59;;;;;;;8.23;5.15;;;;;;;1.66;90.73;99329.81;5053750;28;20056;-77
2023/03/28 02:41:43;;;;;;;6.45;4.72;;;;;;;1.64;90.72;99323.84;5053327;28;20025;-77
2023/03/28 02:44:52;;;;;;;7.25;4.80;;;;;;;1.63;90.81;99327.28;5053193;28;20097;-78
2023/03/28 02:47:23;;;;;;;6.75;4.88;;;;;;;1.74;91.01;99333.13;5050699;28;20032;-77
2023/03/28 02:49:58;;;;;;;9.23;5.25;;;;;;;1.76;90.67;99343.34;5050875;28;20115;-77
2023/03/28 02:52:38;;;;;;;8.93;5.20;;;;;;;1.66;90.45;99319.53;5050543;28;20040;-77
2023/03/28 02:55:19;;;;;;;10.95;5.18;;;;;;;1.86;90.30;99354.34;5050524;28;20032;-78
2023/03/28 02:57:53;;;;;;;6.90;4.97;;;;;;;1.88;90.03;99317.47;5033983;28;20380;-77
2023/03/28 03:00:19;;;;;;;6.85;4.57;;;;;;;1.84;89.94;99313.25;5050454;28;20036;-77
2023/03/28 03:02:48;;;;;;;5.82;4.57;;;;;;;2.08;89.78;99339.41;5050734;28;20492;-77
2023/03/28 03:05:14;;;;;;;7.38;4.90;;;;;;;1.81;90.46;99309.88;5050296;28;20046;-78
2023/03/28 03:07:41;;;;;;;5.45;4.60;;;;;;;1.83;90.80;99318.44;5050397;28;20033;-77
2023/03/28 03:10:08;;;;;;;6.63;4.80;;;;;;;1.87;91.44;99317.50;5050209;28;20060;-77
2023/03/28 03:12:35;;;;;;;8.43;4.68;;;;;;;2.00;91.50;99342.94;5050350;28;20112;-77
2023/03/28 03:15:00;;;;;;;5.47;4.53;;;;;;;2.05;92.54;99334.31;5050333;28;20075;-77
2023/03/28 03:17:27;;;;;;;7.88;5.65;;;;;;;2.06;92.89;99333.44;5050773;28;20040;-77
2023/03/28 03:19:53;;;;;;;9.32;5.10;;;;;;;2.08;93.14;99340.25;5052753;28;20131;-77
2023/03/28 03:22:19;;;;;;;8.27;5.53;;;;;;;1.97;93.15;99330.16;5052335;28;20076;-77
2023/03/28 03:24:45;;;;;;;7.90;4.63;;;;;;;1.87;92.99;99330.34;5052756;28;20021;-77
2023/03/28 03:27:11;;;;;;;6.10;4.68;;;;;;;1.59;93.22;99305.09;5052206;28;20190;-77
2023/03/28 03:29:36;;;;;;;7.25;5.07;;;;;;;1.85;93.14;99340.63;5052620;28;20048;-77
2023/03/28 03:32:01;;;;;;;7.82;4.88;;;;;;;1.89;93.01;99352.53;5052605;28;20024;-77
2023/03/28 03:34:26;;;;;;;6.80;4.25;;;;;;;1.88;93.35;99350.84;5052553;28;20377;-78
2023/03/28 03:36:53;;;;;;;6.93;4.72;;;;;;;1.88;93.83;99350.84;5052285;28;20037;-77
2023/03/28 03:39:20;;;;;;;8.60;4.10;;;;;;;1.75;93.28;99337.38;5052315;28;20028;-77
2023/03/28 03:41:45;;;;;;;9.35;4.45;;;;;;;1.78;93.23;99346.75;5052407;28;20115;-77
2023/03/28 03:44:10;;;;;;;7.07;4.18;;;;;;;1.84;93.38;99348.38;5052145;28;20111;-77
2023/03/28 03:46:36;;;;;;;7.57;3.97;;;;;;;1.93;93.26;99369.59;5052244;28;20029;-77
2023/03/28 03:49:02;;;;;;;8.38;4.15;;;;;;;1.83;92.69;99372.34;5052197;28;20025;-78
2023/03/28 03:51:27;;;;;;;8.07;4.50;;;;;;;1.70;93.40;99353.72;5051770;28;20032;-77
2023/03/28 03:53:52;;;;;;;6.25;4.18;;;;;;;1.63;92.66;99360.66;5052306;28;20021;-77
2023/03/28 03:56:18;;;;;;;6.65;4.20;;;;;;;1.63;91.79;99365.78;5051567;28;20035;-77
2023/03/28 03:58:43;;;;;;;5.22;3.70;;;;;;;1.63;91.93;99368.38;5052211;28;20055;-77
2023/03/28 04:01:14;;;;;;;6.47;4.35;;;;;;;1.71;91.47;99361.41;5050747;28;20116;-78
2023/03/28 04:03:41;;;;;;;7.97;4.07;;;;;;;1.89;91.47;99400.50;5052003;28;20520;-78
2023/03/28 04:06:06;;;;;;;6.15;4.25;;;;;;;1.88;90.59;99391.94;5051503;28;20029;-77
2023/03/28 04:08:32;;;;;;;6.00;4.72;;;;;;;1.87;90.35;99390.25;5052060;28;20430;-77
2023/03/28 04:10:57;;;;;;;6.72;4.00;;;;;;;1.66;90.47;99409.41;5051891;28;20050;-78
2023/03/28 04:13:23;;;;;;;6.63;3.80;;;;;;;1.73;90.95;99411.00;5051817;28;20055;-78
2023/03/28 04:15:48;;;;;;;6.47;3.78;;;;;;;1.70;90.28;99392.25;5052389;28;20031;-77
2023/03/28 04:18:19;;;;;;;5.80;4.03;;;;;;;1.86;89.43;99427.09;5051628;28;20029;-78
2023/03/28 04:20:52;;;;;;;6.10;2.70;;;;;;;1.48;85.69;99407.09;5052171;28;20064;-78
2023/03/28 04:23:19;;;;;;;4.45;1.90;;;;;;;1.28;84.35;99430.44;5051591;28;20029;-78
2023/03/28 04:25:48;;;;;;;5.13;2.42;;;;;;;1.17;84.02;99433.13;5051857;28;20059;-78
2023/03/28 04:28:16;;;;;;;4.05;1.70;;;;;;;0.97;82.17;99441.06;5051643;28;20033;-77
2023/03/28 04:30:42;;;;;;;4.28;2.08;;;;;;;1.02;80.58;99435.91;5052103;28;20029;-77
2023/03/28 04:33:08;;;;;;;2.85;1.70;;;;;;;0.97;79.86;99420.56;5051467;28;20025;-77
2023/03/28 04:35:34;;;;;;;2.00;1.60;;;;;;;0.94;79.18;99440.25;5051908;28;20139;-77
2023/03/28 04:38:01;;;;;;;3.33;1.70;;;;;;;0.92;79.52;99454.78;5051852;28;20025;-77
2023/03/28 04:40:28;;;;;;;1.70;1.42;;;;;;;0.68;79.42;99433.69;5051552;28;20033;-78
2023/03/28 04:42:53;;;;;;;2.85;1.95;;;;;;;0.79;79.61;99455.78;5051693;28;20032;-78
2023/03/28 04:45:19;;;;;;;3.65;2.05;;;;;;;0.74;79.89;99466.94;5051481;28;20373;-78
2023/03/28 04:47:44;;;;;;;2.97;1.52;;;;;;;0.81;79.79;99469.47;5051450;28;20092;-78
2023/03/28 04:50:12;;;;;;;2.92;1.60;;;;;;;0.64;80.28;99442.28;5051577;28;20086;-78
2023/03/28 04:52:37;;;;;;;2.47;1.65;;;;;;;0.69;80.35;99461.00;5051776;28;20025;-78
2023/03/28 04:55:04;;;;;;;4.97;1.80;;;;;;;0.86;80.72;99465.97;5051682;28;20392;-78
2023/03/28 04:57:29;;;;;;;6.88;1.83;;;;;;;0.85;81.00;99468.56;5051420;28;20033;-78
2023/03/28 04:59:55;;;;;;;2.83;2.00;;;;;;;0.97;80.65;99483.81;5028877;28;20588;-78
2023/03/28 05:02:20;;;;;;;4.75;1.95;;;;;;;0.95;80.72;99480.41;5028830;28;20124;-78
2023/03/28 05:04:46;;;;;;;3.22;2.10;;;;;;;0.99;80.55;99470.09;5029087;28;20038;-78
2023/03/28 05:07:11;;;;;;;2.92;1.77;;;;;;;1.17;80.26;99502.38;5028854;28;20508;-78
2023/03/28 05:09:36;;;;;;;5.28;1.67;;;;;;;1.17;80.07;99488.72;5031257;28;20145;-78
2023/03/28 05:12:02;;;;;;;3.33;2.20;;;;;;;1.07;80.32;99479.44;5032955;28;20516;-78
2023/03/28 05:14:27;;;;;;;3.38;1.67;;;;;;;1.33;80.24;99509.94;5032543;28;20584;-77
2023/03/28 05:16:52;;;;;;;4.15;2.13;;;;;;;1.15;80.73;99483.63;5032826;28;20041;-77
2023/03/28 05:19:19;;;;;;;3.13;2.17;;;;;;;1.37;80.70;99515.00;5032654;28;20044;-77
2023/03/28 05:21:45;;;;;;;4.05;1.60;;;;;;;1.32;79.90;99503.94;5032830;28;20021;-77
2023/03/28 05:24:10;;;;;;;4.68;2.05;;;;;;;1.43;80.01;99516.63;5032566;28;20095;-77
2023/03/28 05:26:35;;;;;;;8.18;2.90;;;;;;;1.49;79.34;99531.97;5032376;28;20053;-77
2023/03/28 05:29:01;;;;;;;4.57;1.60;;;;;;;1.38;79.06;99518.41;5032709;28;20473;-77
2023/03/28 05:31:29;;;;;;;5.55;2.28;;;;;;;1.20;79.15;99497.22;5048364;28;20068;-78
2023/03/28 05:33:55;;;;;;;3.72;2.20;;;;;;;1.34;78.65;99547.53;5055164;28;20025;-79
2023/03/28 05:36:20;;;;;;;5.35;2.33;;;;;;;1.23;79.20;99529.72;5054749;28;20396;-78
2023/03/28 05:38:46;;;;;;;3.53;1.98;;;;;;;1.32;79.24;99531.34;5054885;28;20145;-78
2023/03/28 05:41:11;;;;;;;4.20;2.42;;;;;;;1.57;78.68;99548.16;5054580;28;20021;-78
2023/03/28 05:43:36;;;;;;;3.83;2.72;;;;;;;1.51;78.50;99532.81;5054705;28;20047;-78
2023/03/28 05:46:02;;;;;;;7.28;3.33;;;;;;;1.59;78.35;99533.56;5054496;28;20036;-79
2023/03/28 05:48:27;;;;;;;5.82;3.03;;;;;;;1.59;78.16;99538.69;5054592;28;20384;-79
2023/03/28 05:50:53;;;;;;;4.40;2.72;;;;;;;1.66;77.86;99560.03;5054704;28;20029;-78
2023/03/28 05:53:19;;;;;;;4.25;2.88;;;;;;;1.57;78.03;99537.03;5054245;28;20060;-78
2023/03/28 05:55:44;;;;;;;4.25;2.25;;;;;;;1.61;78.00;99554.09;5054510;28;20024;-78
2023/03/28 05:58:10;;;;;;;5.05;1.98;;;;;;;1.67;77.41;99579.69;5054307;28;20035;-79
2023/03/28 06:00:36;;;;;;;4.80;2.80;;;;;;;1.59;77.98;99560.94;5054347;28;20048;-78
2023/03/28 06:03:01;;;;;;;3.60;2.03;;;;;;;1.55;77.13;99562.69;5054512;28;20103;-78
2023/03/28 06:05:26;;;;;;;5.20;2.60;;;;;;;1.54;77.39;99578.13;5054170;28;20035;-78
2023/03/28 06:07:52;;;;;;;4.93;2.55;;;;;;;1.77;77.84;99596.69;5054311;28;20457;-78
2023/03/28 06:10:18;;;;;;;4.35;2.20;;;;;;;1.81;77.76;99595.75;5054070;28;20465;-78
2023/03/28 06:12:43;;;;;;;4.22;2.70;;;;;;;1.79;77.44;99588.97;5054195;28;20104;-78
2023/03/28 06:15:10;;;;;;;3.58;2.40;;;;;;;1.77;77.32;99582.97;5054148;28;20450;-79
2023/03/28 06:17:35;;;;;;;4.43;3.13;;;;;;;1.81;77.08;99589.78;5054229;28;20107;-79
2023/03/28 06:20:04;;;;;;;3.22;2.20;;;;;;;2.00;76.76;99624.66;5053836;28;20163;-79
2023/03/28 06:22:30;;;;;;;5.10;2.50;;;;;;;1.88;76.91;99607.66;5053865;28;20395;-79
2023/03/28 06:24:55;;;;;;;7.13;3.17;;;;;;;1.86;76.79;99588.88;5053983;28;20035;-78
2023/03/28 06:27:21;;;;;;;3.70;2.28;;;;;;;1.85;76.78;99612.84;5053369;28;20049;-79
2023/03/28 06:29:46;;;;;;;8.00;3.17;;;;;;;1.88;76.19;99611.97;5054225;28;20025;-79
2023/03/28 06:32:11;;;;;;;2.60;2.17;;;;;;;1.94;76.35;99645.31;5053978;28;20021;-79
2023/03/28 06:34:37;;;;;;;3.03;2.17;;;;;;;1.77;76.88;99617.25;5053792;28;20048;-79
2023/03/28 06:37:02;;;;;;;2.88;2.47;;;;;;;2.08;76.90;99651.09;5053712;28;20530;-79
2023/03/28 06:39:27;;;;;;;3.50;2.30;;;;;;;2.20;75.73;99645.81;5053629;28;20021;-79
2023/03/28 06:41:53;;;;;;;5.93;2.85;;;;;;;2.05;75.47;99634.88;5053890;28;20060;-79
2023/03/28 06:44:18;;;;;;;4.07;2.42;;;;;;;2.19;75.87;99661.22;5053351;28;20124;-78
2023/03/28 06:46:43;;;;;;;3.63;2.90;;;;;;;2.22;76.18;99674.91;5052338;28;20029;-79
2023/03/28 06:49:08;;;;;;;5.72;3.58;;;;;;;2.12;76.14;99677.63;5053637;28;20055;-79
2023/03/28 06:51:34;;;;;;;4.13;2.80;;;;;;;2.20;76.06;99691.22;5053247;28;20029;-79
2023/03/28 06:53:59;;;;;;;11.73;7.50;;;;;;;2.16;76.08;99681.84;5053444;28;20021;-79
2023/03/28 06:56:25;;;;;;;5.13;3.58;;;;;;;2.47;75.99;99677.16;5053213;28;20472;-79
2023/03/28 06:58:50;;;;;;;5.90;3.35;;;;;;;2.53;74.78;99694.22;5053198;28;20465;-79
2023/03/28 07:01:16;;;;;;;4.50;3.28;;;;;;;2.48;75.19;99696.84;5052951;28;20037;-79
2023/03/28 07:03:41;;;;;;;5.45;3.25;;;;;;;2.55;74.86;99675.34;5053246;28;20071;-79
2023/03/28 07:06:08;;;;;;;5.43;2.85;;;;;;;2.71;75.18;99694.84;5053110;28;20028;-79
2023/03/28 07:08:34;;;;;;;3.88;3.13;;;;;;;3.22;74.21;99706.94;5052892;28;20451;-78
2023/03/28 07:11:00;;;;;;;8.48;3.63;;;;;;;3.58;72.87;99699.47;5053045;28;20037;-78
2023/03/28 07:13:25;;;;;;;4.88;2.85;;;;;;;5.15;70.43;99705.72;5052739;28;20055;-78
2023/03/28 07:16:05;;;;;;;6.88;3.00;;;;;;;6.30;64.58;99708.78;5052895;28;20041;-78
2023/03/28 07:18:31;;;;;;;2.45;2.20;;;;;;;6.72;63.05;99721.38;5052785;28;20025;-78
2023/03/28 07:20:57;;;;;;;6.63;3.92;;;;;;;6.15;61.77;99667.84;5052919;28;20528;-78
2023/03/28 07:23:23;;;;;;;4.15;3.08;;;;;;;5.98;63.11;99732.94;5052668;28;20049;-78
2023/03/28 07:25:49;;;;;;;6.25;3.42;;;;;;;5.03;64.12;99717.19;5052555;28;20067;-78
2023/03/28 07:28:14;;;;;;;7.90;4.20;;;;;;;4.91;65.83;99730.34;5052629;28;20469;-78
2023/03/28 07:30:40;;;;;;;6.75;3.97;;;;;;;4.92;66.40;99721.72;5052794;28;20087;-78
2023/03/28 07:33:05;;;;;;;5.00;2.88;;;;;;;4.92;65.92;99725.16;5052425;28;20029;-78
2023/03/28 07:35:30;;;;;;;6.13;3.47;;;;;;;4.67;66.06;99742.06;5052357;28;20033;-78
2023/03/28 07:37:58;;;;;;;7.07;3.30;;;;;;;4.55;66.52;99743.19;5052837;28;20392;-78
2023/03/28 07:40:23;;;;;;;8.73;3.58;;;;;;;4.18;67.08;99748.22;5052240;28;20030;-78
2023/03/28 07:42:48;;;;;;;6.68;3.63;;;;;;;4.25;68.17;99748.03;5052614;28;20032;-78
2023/03/28 07:45:14;;;;;;;4.43;2.88;;;;;;;3.87;67.62;99707.53;5052313;28;20033;-78
2023/03/28 07:47:40;;;;;;;4.32;3.47;;;;;;;3.80;68.01;99746.34;5052416;28;20033;-79
2023/03/28 07:50:06;;;;;;;6.93;3.65;;;;;;;3.74;68.00;99742.13;5052447;28;20054;-79
2023/03/28 07:52:32;;;;;;;3.25;2.45;;;;;;;3.72;67.97;99743.88;5052217;28;20037;-78
2023/03/28 07:54:57;;;;;;;3.67;2.75;;;;;;;4.55;67.53;99768.97;5051253;28;20040;-79
2023/03/28 07:57:22;;;;;;;5.10;2.85;;;;;;;6.39;64.28;99770.63;5051831;28;20028;-78
2023/03/28 07:59:49;;;;;;;5.05;2.88;;;;;;;6.92;61.65;99757.03;5052122;28;20021;-79
2023/03/28 08:02:14;;;;;;;4.40;3.05;;;;;;;7.00;60.79;99755.06;5052249;28;20108;-79
2023/03/28 08:04:40;;;;;;;5.47;2.67;;;;;;;6.67;59.28;99746.56;5051981;28;20470;-79
2023/03/28 08:07:06;;;;;;;5.93;2.70;;;;;;;6.20;61.05;99779.78;5052218;28;20380;-79
2023/03/28 08:09:32;;;;;;;7.25;4.20;;;;;;;5.49;62.50;99758.25;5051798;28;20115;-79
2023/03/28 08:11:57;;;;;;;15.48;6.63;;;;;;;5.17;64.27;99791.72;5051860;28;20032;-79
2023/03/28 08:14:23;;;;;;;5.45;4.18;;;;;;;4.74;65.28;99790.06;5051850;28;20029;-79
2023/03/28 08:16:49;;;;;;;8.10;5.10;;;;;;;4.40;66.03;99766.69;5051957;28;20020;-79
2023/03/28 08:19:14;;;;;;;5.88;2.92;;;;;;;4.09;66.23;99771.56;5051972;28;20032;-79
2023/03/28 08:21:40;;;;;;;5.05;2.63;;;;;;;4.18;65.78;99790.31;5051614;28;20381;-79
2023/03/28 08:24:06;;;;;;;3.35;2.55;;;;;;;4.21;66.21;99790.25;5041505;28;20640;-79
2023/03/28 08:26:32;;;;;;;4.53;2.40;;;;;;;4.12;66.11;99763.78;5039278;28;20053;-78
2023/03/28 08:28:58;;;;;;;5.85;2.80;;;;;;;4.32;66.22;99795.19;5040592;28;20482;-78
2023/03/28 08:31:25;;;;;;;4.47;2.72;;;;;;;3.99;65.86;99774.31;5038658;28;20039;-78
2023/03/28 08:33:52;;;;;;;5.18;3.05;;;;;;;4.21;65.86;99771.34;5031736;28;20432;-79
2023/03/28 08:36:20;;;;;;;5.78;3.13;;;;;;;4.41;64.13;99799.31;5036408;28;20083;-78
2023/03/28 08:38:48;;;;;;;5.15;3.13;;;;;;;4.34;64.70;99802.91;5042017;28;20021;-79
2023/03/28 08:41:45;;;;;;;5.30;3.05;;;;;;;4.49;64.17;99787.97;5042042;28;20033;-79
2023/03/28 08:44:46;;;;;;;3.97;2.55;;;;;;;4.44;63.47;99797.53;5044474;28;20381;-78
2023/03/28 08:47:24;;;;;;;6.80;4.45;;;;;;;4.68;63.79;99757.53;5037567;28;20036;-78
2023/03/28 08:50:00;;;;;;;7.47;4.20;;;;;;;5.11;63.75;99797.03;5040601;28;20017;-78
2023/03/28 08:52:27;;;;;;;5.18;3.13;;;;;;;5.35;62.51;99787.88;5035281;28;20381;-79
2023/03/28 08:55:05;;;;;;;5.22;2.70;;;;;;;5.70;60.44;99779.31;5035794;28;20042;-78
2023/03/28 08:57:33;;;;;;;3.65;1.85;;;;;;;5.62;60.41;99768.31;5035547;28;20040;-78
2023/03/28 09:00:27;;;;;;;2.72;2.22;;;;;;;5.69;60.73;99795.69;5035749;28;20033;-79
2023/03/28 09:02:54;;;;;;;2.85;1.98;;;;;;;5.81;61.48;99803.13;5033127;28;20056;-79
2023/03/28 09:05:34;;;;;;;3.72;2.10;;;;;;;5.86;61.49;99806.47;5032897;28;20532;-78
2023/03/28 09:08:15;;;;;;;3.78;2.22;;;;;;;5.84;60.13;99774.63;5032975;28;20389;-78
2023/03/28 09:10:46;;;;;;;3.97;2.50;;;;;;;6.07;59.36;99815.47;5032932;28;20025;-79
2023/03/28 09:13:30;;;;;;;2.57;1.70;;;;;;;5.51;58.17;99797.81;5033098;28;20038;-79
2023/03/28 09:16:15;;;;;;;4.63;2.95;;;;;;;5.20;60.79;99812.31;5032851;28;20033;-79
2023/03/28 09:18:53;;;;;;;3.53;2.50;;;;;;;4.54;73.64;99869.59;5032576;28;20103;-79
2023/03/28 09:21:30;;;;;;;6.63;3.80;;;;;;;3.88;79.88;99881.03;5032757;28;20044;-79
2023/03/28 09:24:16;;;;;;;6.28;3.75;;;;;;;3.37;83.35;99870.59;5032792;28;20061;-77
2023/03/28 09:27:01;;;;;;;5.80;3.78;;;;;;;2.84;83.82;99815.56;5032114;28;20050;-78
2023/03/28 09:29:31;;;;;;;4.97;3.85;;;;;;;3.29;83.98;99875.88;5032592;28;20120;-78
2023/03/28 09:32:08;;;;;;;5.78;3.60;;;;;;;3.45;83.15;99859.31;5032634;28;20409;-76
2023/03/28 09:34:39;;;;;;;5.10;3.40;;;;;;;3.74;81.94;99876.94;5032327;28;20032;-77
2023/03/28 09:37:23;;;;;;;5.53;3.35;;;;;;;3.59;81.21;99869.44;5045777;28;20037;-77
2023/03/28 09:39:52;;;;;;;3.97;2.75;;;;;;;3.88;79.33;99865.56;5033038;28;20025;-77
2023/03/28 09:42:38;;;;;;;6.57;2.60;;;;;;;4.28;77.92;99863.16;5034900;28;20116;-77
2023/03/28 09:45:35;;;;;;;7.05;3.55;;;;;;;4.39;73.20;99871.56;5034880;28;20444;-77
2023/03/28 09:48:03;;;;;;;11.07;3.17;;;;;;;4.56;72.42;99844.63;5034812;28;20021;-77
2023/03/28 09:50:29;;;;;;;3.67;2.30;;;;;;;4.71;68.07;99868.38;5034594;28;20108;-78
2023/03/28 09:52:56;;;;;;;4.72;2.65;;;;;;;4.77;65.34;99857.09;5034726;28;20116;-78
2023/03/28 09:55:24;;;;;;;9.80;4.78;;;;;;;4.98;65.59;99885.06;5033686;28;20380;-78
2023/03/28 09:58:04;;;;;;;9.68;4.13;;;;;;;5.06;64.71;99881.50;5034533;28;20033;-78
2023/03/28 10:00:33;;;;;;;6.15;3.10;;;;;;;4.95;63.36;99863.63;5034194;28;20025;-78
2023/03/28 10:02:59;;;;;;;3.65;2.42;;;;;;;5.23;63.11;99874.25;5034332;28;20116;-78
2023/03/28 10:05:39;;;;;;;3.05;2.10;;;;;;;5.38;62.58;99888.53;5034239;28;20116;-78
2023/03/28 10:08:22;;;;;;;3.45;2.13;;;;;;;5.40;60.46;99866.97;5034257;28;20491;-77
2023/03/28 10:11:01;;;;;;;3.65;2.78;;;;;;;5.38;58.30;99899.72;5034292;28;20091;-78
2023/03/28 10:13:34;;;;;;;6.35;2.13;;;;;;;5.19;57.68;99898.44;5034061;28;20033;-77
2023/03/28 10:16:01;;;;;;;4.45;2.08;;;;;;;4.87;56.66;99887.00;5034271;28;20025;-77
2023/03/28 10:18:30;;;;;;;6.32;3.33;;;;;;;4.60;56.41;99898.72;5034064;28;20388;-77
2023/03/28 10:20:55;;;;;;;6.40;3.58;;;;;;;4.68;57.43;99904.59;5034518;28;20037;-78
2023/03/28 10:23:22;;;;;;;4.75;3.38;;;;;;;4.74;57.80;99867.47;5034124;28;20045;-77
2023/03/28 10:25:53;;;;;;;5.03;2.97;;;;;;;4.96;57.30;99883.38;5033747;28;20099;-78
2023/03/28 10:28:34;;;;;;;5.43;3.00;;;;;;;4.56;55.77;99881.59;5034090;28;20026;-78
2023/03/28 10:31:01;;;;;;;7.10;3.85;;;;;;;4.52;55.82;99905.72;5033967;28;20036;-77
2023/03/28 10:33:32;;;;;;;6.32;3.10;;;;;;;3.90;57.08;99885.28;5033542;28;20064;-77
2023/03/28 10:36:09;;;;;;;8.87;3.60;;;;;;;3.90;57.73;99863.81;5034053;28;20060;-77
2023/03/28 10:38:34;;;;;;;6.03;3.33;;;;;;;4.01;57.73;99916.03;5033709;28;20260;-77
2023/03/28 10:41:25;;;;;;;7.30;4.05;;;;;;;4.12;58.64;99879.78;5033787;28;20026;-77
2023/03/28 10:43:51;;;;;;;7.70;3.92;;;;;;;4.24;57.69;99882.16;5031235;28;20042;-77
2023/03/28 10:46:20;;;;;;;3.42;2.42;;;;;;;4.60;55.68;99913.34;5031108;28;20048;-78
2023/03/28 10:48:56;;;;;;;7.97;3.97;;;;;;;4.53;55.19;99906.59;5030933;28;20535;-77
2023/03/28 10:51:23;;;;;;;5.07;3.00;;;;;;;4.70;55.49;99915.72;5031062;28;20167;-78
2023/03/28 10:54:22;;;;;;;4.40;2.63;;;;;;;4.82;56.73;99926.69;5030804;28;20057;-77
2023/03/28 10:57:07;;;;;;;5.70;3.53;;;;;;;4.66;59.12;99918.38;5030826;28;20029;-78
2023/03/28 10:59:37;;;;;;;2.97;2.67;;;;;;;4.34;61.50;99945.59;5030766;28;20139;-77
2023/03/28 11:02:05;;;;;;;3.70;2.17;;;;;;;4.01;61.28;99944.41;5031175;28;20551;-77
2023/03/28 11:04:52;;;;;;;4.47;2.88;;;;;;;4.00;62.53;99959.00;5030612;28;20509;-78
2023/03/28 11:07:41;;;;;;;6.25;3.13;;;;;;;4.30;62.97;99959.41;5029677;28;20116;-77
2023/03/28 11:10:53;;;;;;;4.93;3.15;;;;;;;4.43;64.61;99972.97;5030783;28;20030;-78
2023/03/28 11:13:34;;;;;;;5.47;2.63;;;;;;;3.96;64.95;99947.03;4970193;28;20400;-78
2023/03/28 11:16:24;;;;;;;4.78;3.40;;;;;;;4.18;64.29;99975.06;4972043;28;20026;-77
2023/03/28 11:19:07;;;;;;;4.93;4.20;;;;;;;3.70;62.05;99939.66;4971557;28;20046;-77
2023/03/28 11:21:44;;;;;;;4.57;3.25;;;;;;;3.72;61.60;99968.84;4956488;28;20054;-79
2023/03/28 11:24:24;;;;;;;6.38;3.67;;;;;;;3.50;62.33;99911.63;4952245;29;20043;-76
2023/03/28 11:27:00;;;;;;;4.93;2.72;;;;;;;3.99;62.22;99949.56;4935766;29;20051;-77
2023/03/28 11:29:40;;;;;;;5.55;3.10;;;;;;;4.34;60.89;99983.41;4952483;29;20031;-77
2023/03/28 11:32:20;;;;;;;5.68;3.90;;;;;;;4.13;61.09;99998.34;4952235;29;20039;-76
2023/03/28 11:35:20;;;;;;;10.93;4.20;;;;;;;3.47;75.96;100032.69;4952108;28;20028;-77
2023/03/28 11:38:03;;;;;;;8.10;4.13;;;;;;;2.60;85.21;100006.97;4952127;28;20098;-78
2023/03/28 11:40:47;;;;;;;5.88;4.32;;;;;;;2.49;86.89;100013.06;4952074;29;20039;-79
2023/03/28 11:43:21;;;;;;;7.20;4.28;;;;;;;2.57;85.84;99981.28;4952150;29;20053;-79
2023/03/28 11:45:52;;;;;;;5.53;2.88;;;;;;;2.98;84.70;99986.88;4951817;29;20031;-80
2023/03/28 11:49:01;;;;;;;7.22;3.92;;;;;;;3.39;84.01;100015.63;4951998;29;20081;-79
2023/03/28 11:51:33;;;;;;;6.70;3.35;;;;;;;3.67;81.84;100011.00;5029952;28;20045;-80
2023/03/28 11:54:12;;;;;;;7.28;3.60;;;;;;;3.93;80.26;99998.63;5029907;28;20497;-78
2023/03/28 11:56:58;;;;;;;5.75;2.65;;;;;;;3.79;77.05;100007.41;5029658;28;20041;-79
2023/03/28 11:59:26;;;;;;;5.35;3.38;;;;;;;3.41;76.66;100013.88;5029864;28;20034;-79